sensor_id;sensor_type;location;lat;lon;timestamp;temperature;humidity
64817;DHT22;69411;45.656;11.740;2023-12-22T00:01:09;3.30;74.50
64817;DHT22;69411;45.656;11.740;2023-12-22T00:03:37;3.40;74.50
64817;DHT22;69411;45.656;11.740;2023-12-22T00:06:03;3.40;74.10
64817;DHT22;69411;45.656;11.740;2023-12-22T00:08:29;3.30;74.40
64817;DHT22;69411;45.656;11.740;2023-12-22T00:10:55;3.40;74.60
64817;DHT22;69411;45.656;11.740;2023-12-22T00:13:21;3.40;74.60
64817;DHT22;69411;45.656;11.740;2023-12-22T00:15:46;3.40;74.60
64817;DHT22;69411;45.656;11.740;2023-12-22T00:18:12;3.40;74.50
64817;DHT22;69411;45.656;11.740;2023-12-22T00:20:38;3.40;74.40
64817;DHT22;69411;45.656;11.740;2023-12-22T00:23:04;3.40;74.60
64817;DHT22;69411;45.656;11.740;2023-12-22T00:25:30;3.50;74.80
64817;DHT22;69411;45.656;11.740;2023-12-22T00:27:56;3.40;74.70
64817;DHT22;69411;45.656;11.740;2023-12-22T00:30:22;3.50;74.20
64817;DHT22;69411;45.656;11.740;2023-12-22T00:32:50;3.50;74.20
64817;DHT22;69411;45.656;11.740;2023-12-22T00:35:15;3.50;74.60
64817;DHT22;69411;45.656;11.740;2023-12-22T00:37:41;3.50;74.70
64817;DHT22;69411;45.656;11.740;2023-12-22T00:40:07;3.60;74.60
64817;DHT22;69411;45.656;11.740;2023-12-22T00:42:35;3.60;74.50
64817;DHT22;69411;45.656;11.740;2023-12-22T00:45:01;3.60;74.50
64817;DHT22;69411;45.656;11.740;2023-12-22T00:47:28;3.60;74.60
64817;DHT22;69411;45.656;11.740;2023-12-22T00:49:54;3.60;74.60
64817;DHT22;69411;45.656;11.740;2023-12-22T00:52:20;3.60;74.60
64817;DHT22;69411;45.656;11.740;2023-12-22T00:54:46;3.60;74.60
64817;DHT22;69411;45.656;11.740;2023-12-22T00:57:12;3.60;74.70
64817;DHT22;69411;45.656;11.740;2023-12-22T00:59:39;3.60;74.80
64817;DHT22;69411;45.656;11.740;2023-12-22T01:02:10;3.60;74.90
64817;DHT22;69411;45.656;11.740;2023-12-22T01:04:36;3.70;75.00
64817;DHT22;69411;45.656;11.740;2023-12-22T01:07:02;3.60;74.90
64817;DHT22;69411;45.656;11.740;2023-12-22T01:09:28;3.70;74.80
64817;DHT22;69411;45.656;11.740;2023-12-22T01:11:54;3.70;75.00
64817;DHT22;69411;45.656;11.740;2023-12-22T01:14:20;3.70;74.90
64817;DHT22;69411;45.656;11.740;2023-12-22T01:16:46;3.70;74.90
64817;DHT22;69411;45.656;11.740;2023-12-22T01:19:12;3.80;75.30
64817;DHT22;69411;45.656;11.740;2023-12-22T01:21:38;3.80;75.30
64817;DHT22;69411;45.656;11.740;2023-12-22T01:24:04;3.80;75.20
64817;DHT22;69411;45.656;11.740;2023-12-22T01:26:30;3.80;75.40
64817;DHT22;69411;45.656;11.740;2023-12-22T01:28:56;3.90;75.30
64817;DHT22;69411;45.656;11.740;2023-12-22T01:31:21;3.90;75.20
64817;DHT22;69411;45.656;11.740;2023-12-22T01:33:47;3.90;75.10
64817;DHT22;69411;45.656;11.740;2023-12-22T01:36:13;3.90;75.10
64817;DHT22;69411;45.656;11.740;2023-12-22T01:38:39;3.90;75.00
64817;DHT22;69411;45.656;11.740;2023-12-22T01:41:05;3.90;75.10
64817;DHT22;69411;45.656;11.740;2023-12-22T01:43:31;3.90;75.00
64817;DHT22;69411;45.656;11.740;2023-12-22T01:45:58;3.90;74.80
64817;DHT22;69411;45.656;11.740;2023-12-22T01:48:25;3.90;74.40
64817;DHT22;69411;45.656;11.740;2023-12-22T01:50:52;3.90;74.10
64817;DHT22;69411;45.656;11.740;2023-12-22T01:53:20;3.90;74.40
64817;DHT22;69411;45.656;11.740;2023-12-22T01:55:47;3.90;74.60
64817;DHT22;69411;45.656;11.740;2023-12-22T01:58:14;3.90;74.60
64817;DHT22;69411;45.656;11.740;2023-12-22T02:00:40;3.90;74.30
64817;DHT22;69411;45.656;11.740;2023-12-22T02:03:06;3.90;74.40
64817;DHT22;69411;45.656;11.740;2023-12-22T02:05:32;3.90;74.70
64817;DHT22;69411;45.656;11.740;2023-12-22T02:07:58;3.90;74.80
64817;DHT22;69411;45.656;11.740;2023-12-22T02:10:24;3.90;74.30
64817;DHT22;69411;45.656;11.740;2023-12-22T02:12:50;3.90;74.40
64817;DHT22;69411;45.656;11.740;2023-12-22T02:15:16;3.60;74.90
64817;DHT22;69411;45.656;11.740;2023-12-22T02:17:59;3.60;74.90
64817;DHT22;69411;45.656;11.740;2023-12-22T02:20:26;3.60;75.00
64817;DHT22;69411;45.656;11.740;2023-12-22T02:22:53;3.70;75.10
64817;DHT22;69411;45.656;11.740;2023-12-22T02:25:19;3.70;75.20
64817;DHT22;69411;45.656;11.740;2023-12-22T02:27:50;3.70;75.30
64817;DHT22;69411;45.656;11.740;2023-12-22T02:30:42;3.70;75.00
64817;DHT22;69411;45.656;11.740;2023-12-22T02:33:10;3.80;74.90
64817;DHT22;69411;45.656;11.740;2023-12-22T02:35:38;3.80;75.50
64817;DHT22;69411;45.656;11.740;2023-12-22T02:38:07;3.80;75.80
64817;DHT22;69411;45.656;11.740;2023-12-22T02:40:34;3.80;75.20
64817;DHT22;69411;45.656;11.740;2023-12-22T02:43:05;3.80;75.30
64817;DHT22;69411;45.656;11.740;2023-12-22T02:45:32;3.90;75.40
64817;DHT22;69411;45.656;11.740;2023-12-22T02:47:58;3.90;75.30
64817;DHT22;69411;45.656;11.740;2023-12-22T02:50:24;3.90;75.40
64817;DHT22;69411;45.656;11.740;2023-12-22T02:52:50;3.90;75.50
64817;DHT22;69411;45.656;11.740;2023-12-22T02:55:16;3.90;75.70
64817;DHT22;69411;45.656;11.740;2023-12-22T02:57:42;3.90;75.60
64817;DHT22;69411;45.656;11.740;2023-12-22T03:00:09;4.00;75.30
64817;DHT22;69411;45.656;11.740;2023-12-22T03:02:35;4.00;75.30
64817;DHT22;69411;45.656;11.740;2023-12-22T03:05:01;4.00;75.40
64817;DHT22;69411;45.656;11.740;2023-12-22T03:07:27;4.00;74.90
64817;DHT22;69411;45.656;11.740;2023-12-22T03:09:53;4.00;75.20
64817;DHT22;69411;45.656;11.740;2023-12-22T03:12:18;4.00;75.20
64817;DHT22;69411;45.656;11.740;2023-12-22T03:14:44;4.00;75.20
64817;DHT22;69411;45.656;11.740;2023-12-22T03:17:10;4.00;74.90
64817;DHT22;69411;45.656;11.740;2023-12-22T03:19:36;4.00;75.20
64817;DHT22;69411;45.656;11.740;2023-12-22T03:22:03;4.10;75.20
64817;DHT22;69411;45.656;11.740;2023-12-22T03:24:29;4.00;75.10
64817;DHT22;69411;45.656;11.740;2023-12-22T03:26:55;4.00;75.10
64817;DHT22;69411;45.656;11.740;2023-12-22T03:29:21;4.10;75.20
64817;DHT22;69411;45.656;11.740;2023-12-22T03:31:47;4.10;75.10
64817;DHT22;69411;45.656;11.740;2023-12-22T03:34:13;4.10;75.30
64817;DHT22;69411;45.656;11.740;2023-12-22T03:36:39;4.10;75.20
64817;DHT22;69411;45.656;11.740;2023-12-22T03:39:05;4.10;75.60
64817;DHT22;69411;45.656;11.740;2023-12-22T03:41:31;4.10;75.40
64817;DHT22;69411;45.656;11.740;2023-12-22T03:43:57;4.10;75.20
64817;DHT22;69411;45.656;11.740;2023-12-22T03:46:24;4.10;75.20
64817;DHT22;69411;45.656;11.740;2023-12-22T03:48:51;4.10;74.90
64817;DHT22;69411;45.656;11.740;2023-12-22T03:51:17;4.10;74.70
64817;DHT22;69411;45.656;11.740;2023-12-22T03:53:43;4.10;75.10
64817;DHT22;69411;45.656;11.740;2023-12-22T03:56:09;4.10;74.80
64817;DHT22;69411;45.656;11.740;2023-12-22T03:58:36;4.10;74.70
64817;DHT22;69411;45.656;11.740;2023-12-22T04:01:02;4.00;75.00
64817;DHT22;69411;45.656;11.740;2023-12-22T04:03:28;4.00;75.10
64817;DHT22;69411;45.656;11.740;2023-12-22T04:05:54;3.90;74.90
64817;DHT22;69411;45.656;11.740;2023-12-22T04:08:20;3.90;75.20
64817;DHT22;69411;45.656;11.740;2023-12-22T04:10:47;3.90;75.20
64817;DHT22;69411;45.656;11.740;2023-12-22T04:13:13;3.90;75.20
64817;DHT22;69411;45.656;11.740;2023-12-22T04:15:39;3.90;75.50
64817;DHT22;69411;45.656;11.740;2023-12-22T04:18:05;4.00;75.00
64817;DHT22;69411;45.656;11.740;2023-12-22T04:20:31;3.90;75.20
64817;DHT22;69411;45.656;11.740;2023-12-22T04:22:58;3.90;75.30
64817;DHT22;69411;45.656;11.740;2023-12-22T04:25:23;4.00;75.40
64817;DHT22;69411;45.656;11.740;2023-12-22T04:27:51;4.00;75.00
64817;DHT22;69411;45.656;11.740;2023-12-22T04:30:17;3.90;74.60
64817;DHT22;69411;45.656;11.740;2023-12-22T04:32:43;3.90;74.60
64817;DHT22;69411;45.656;11.740;2023-12-22T04:35:09;3.80;75.00
64817;DHT22;69411;45.656;11.740;2023-12-22T04:37:35;3.80;74.80
64817;DHT22;69411;45.656;11.740;2023-12-22T04:40:01;3.70;75.10
64817;DHT22;69411;45.656;11.740;2023-12-22T04:42:29;3.60;75.10
64817;DHT22;69411;45.656;11.740;2023-12-22T04:44:55;3.60;75.40
64817;DHT22;69411;45.656;11.740;2023-12-22T04:47:21;3.50;75.60
64817;DHT22;69411;45.656;11.740;2023-12-22T04:49:47;3.50;75.70
64817;DHT22;69411;45.656;11.740;2023-12-22T04:52:13;3.50;75.80
64817;DHT22;69411;45.656;11.740;2023-12-22T04:54:39;3.50;75.70
64817;DHT22;69411;45.656;11.740;2023-12-22T04:57:05;3.50;75.80
64817;DHT22;69411;45.656;11.740;2023-12-22T04:59:31;3.60;75.70
64817;DHT22;69411;45.656;11.740;2023-12-22T05:01:57;3.60;75.90
64817;DHT22;69411;45.656;11.740;2023-12-22T05:04:23;3.70;75.60
64817;DHT22;69411;45.656;11.740;2023-12-22T05:06:49;3.80;75.90
64817;DHT22;69411;45.656;11.740;2023-12-22T05:09:16;3.80;75.60
64817;DHT22;69411;45.656;11.740;2023-12-22T05:11:42;3.90;75.40
64817;DHT22;69411;45.656;11.740;2023-12-22T05:14:09;3.90;75.30
64817;DHT22;69411;45.656;11.740;2023-12-22T05:16:35;3.90;74.80
64817;DHT22;69411;45.656;11.740;2023-12-22T05:19:01;4.00;74.70
64817;DHT22;69411;45.656;11.740;2023-12-22T05:21:27;4.00;74.90
64817;DHT22;69411;45.656;11.740;2023-12-22T05:23:54;4.00;75.00
64817;DHT22;69411;45.656;11.740;2023-12-22T05:26:20;4.10;75.10
64817;DHT22;69411;45.656;11.740;2023-12-22T05:28:47;4.20;75.50
64817;DHT22;69411;45.656;11.740;2023-12-22T05:31:16;4.20;75.30
64817;DHT22;69411;45.656;11.740;2023-12-22T05:33:43;4.30;75.00
64817;DHT22;69411;45.656;11.740;2023-12-22T05:36:09;4.40;74.40
64817;DHT22;69411;45.656;11.740;2023-12-22T05:38:38;4.40;74.70
64817;DHT22;69411;45.656;11.740;2023-12-22T05:41:05;4.40;73.40
64817;DHT22;69411;45.656;11.740;2023-12-22T05:43:32;4.40;73.90
64817;DHT22;69411;45.656;11.740;2023-12-22T05:45:59;4.30;74.10
64817;DHT22;69411;45.656;11.740;2023-12-22T05:48:26;4.40;74.30
64817;DHT22;69411;45.656;11.740;2023-12-22T05:50:55;4.40;74.30
64817;DHT22;69411;45.656;11.740;2023-12-22T05:53:21;4.40;74.20
64817;DHT22;69411;45.656;11.740;2023-12-22T05:55:47;4.30;72.90
64817;DHT22;69411;45.656;11.740;2023-12-22T05:58:14;4.20;73.70
64817;DHT22;69411;45.656;11.740;2023-12-22T06:00:40;4.20;73.70
64817;DHT22;69411;45.656;11.740;2023-12-22T06:03:06;4.20;73.90
64817;DHT22;69411;45.656;11.740;2023-12-22T06:05:32;4.20;74.00
64817;DHT22;69411;45.656;11.740;2023-12-22T06:07:58;4.10;73.80
64817;DHT22;69411;45.656;11.740;2023-12-22T06:10:24;4.10;74.20
64817;DHT22;69411;45.656;11.740;2023-12-22T06:12:50;4.10;74.50
64817;DHT22;69411;45.656;11.740;2023-12-22T06:15:16;4.10;73.80
64817;DHT22;69411;45.656;11.740;2023-12-22T06:17:42;4.10;74.00
64817;DHT22;69411;45.656;11.740;2023-12-22T06:20:08;4.10;74.00
64817;DHT22;69411;45.656;11.740;2023-12-22T06:22:35;4.10;73.80
64817;DHT22;69411;45.656;11.740;2023-12-22T06:25:01;4.00;73.70
64817;DHT22;69411;45.656;11.740;2023-12-22T06:27:33;3.90;74.00
64817;DHT22;69411;45.656;11.740;2023-12-22T06:29:59;3.90;74.10
64817;DHT22;69411;45.656;11.740;2023-12-22T06:32:25;3.90;74.10
64817;DHT22;69411;45.656;11.740;2023-12-22T06:34:51;3.90;74.20
64817;DHT22;69411;45.656;11.740;2023-12-22T06:37:17;3.90;74.20
64817;DHT22;69411;45.656;11.740;2023-12-22T06:39:43;3.90;73.80
64817;DHT22;69411;45.656;11.740;2023-12-22T06:42:09;3.90;73.90
64817;DHT22;69411;45.656;11.740;2023-12-22T06:44:38;3.90;74.20
64817;DHT22;69411;45.656;11.740;2023-12-22T06:47:04;3.90;74.20
64817;DHT22;69411;45.656;11.740;2023-12-22T06:49:32;3.90;74.20
64817;DHT22;69411;45.656;11.740;2023-12-22T06:51:58;3.80;74.10
64817;DHT22;69411;45.656;11.740;2023-12-22T06:54:23;3.80;74.10
64817;DHT22;69411;45.656;11.740;2023-12-22T06:56:49;3.80;73.20
64817;DHT22;69411;45.656;11.740;2023-12-22T06:59:15;3.60;73.30
64817;DHT22;69411;45.656;11.740;2023-12-22T07:01:41;3.60;74.00
64817;DHT22;69411;45.656;11.740;2023-12-22T07:04:07;3.60;74.00
64817;DHT22;69411;45.656;11.740;2023-12-22T07:06:34;3.50;74.10
64817;DHT22;69411;45.656;11.740;2023-12-22T07:11:38;3.40;74.20
64817;DHT22;69411;45.656;11.740;2023-12-22T07:14:04;3.40;74.50
64817;DHT22;69411;45.656;11.740;2023-12-22T07:16:34;3.30;74.60
64817;DHT22;69411;45.656;11.740;2023-12-22T07:19:00;3.30;75.10
64817;DHT22;69411;45.656;11.740;2023-12-22T07:21:27;3.30;75.10
64817;DHT22;69411;45.656;11.740;2023-12-22T07:23:53;3.30;75.60
64817;DHT22;69411;45.656;11.740;2023-12-22T07:26:19;3.30;75.50
64817;DHT22;69411;45.656;11.740;2023-12-22T07:28:47;3.40;75.50
64817;DHT22;69411;45.656;11.740;2023-12-22T07:31:14;3.40;75.80
64817;DHT22;69411;45.656;11.740;2023-12-22T07:33:40;3.50;75.60
64817;DHT22;69411;45.656;11.740;2023-12-22T07:36:09;3.50;75.80
64817;DHT22;69411;45.656;11.740;2023-12-22T07:38:36;3.60;76.00
64817;DHT22;69411;45.656;11.740;2023-12-22T07:41:01;3.70;75.40
64817;DHT22;69411;45.656;11.740;2023-12-22T07:43:27;3.70;75.40
64817;DHT22;69411;45.656;11.740;2023-12-22T07:45:55;3.70;75.80
64817;DHT22;69411;45.656;11.740;2023-12-22T07:48:21;3.70;76.20
64817;DHT22;69411;45.656;11.740;2023-12-22T07:50:47;3.80;75.80
64817;DHT22;69411;45.656;11.740;2023-12-22T07:53:14;3.90;75.60
64817;DHT22;69411;45.656;11.740;2023-12-22T07:55:40;3.90;75.90
64817;DHT22;69411;45.656;11.740;2023-12-22T07:58:06;3.90;75.60
64817;DHT22;69411;45.656;11.740;2023-12-22T08:00:33;3.90;75.80
64817;DHT22;69411;45.656;11.740;2023-12-22T08:02:59;3.90;75.90
64817;DHT22;69411;45.656;11.740;2023-12-22T08:05:26;4.00;75.70
64817;DHT22;69411;45.656;11.740;2023-12-22T08:07:55;4.00;75.60
64817;DHT22;69411;45.656;11.740;2023-12-22T08:10:25;4.10;75.80
64817;DHT22;69411;45.656;11.740;2023-12-22T08:12:53;4.10;75.80
64817;DHT22;69411;45.656;11.740;2023-12-22T08:15:18;4.20;75.90
64817;DHT22;69411;45.656;11.740;2023-12-22T08:17:50;4.30;76.40
64817;DHT22;69411;45.656;11.740;2023-12-22T08:20:21;4.50;76.50
64817;DHT22;69411;45.656;11.740;2023-12-22T08:22:48;4.70;76.40
64817;DHT22;69411;45.656;11.740;2023-12-22T08:25:14;4.90;75.80
64817;DHT22;69411;45.656;11.740;2023-12-22T08:27:41;5.00;75.70
64817;DHT22;69411;45.656;11.740;2023-12-22T08:30:11;5.20;75.90
64817;DHT22;69411;45.656;11.740;2023-12-22T08:32:38;5.40;75.70
64817;DHT22;69411;45.656;11.740;2023-12-22T08:35:13;5.50;75.50
64817;DHT22;69411;45.656;11.740;2023-12-22T08:37:39;5.70;74.10
64817;DHT22;69411;45.656;11.740;2023-12-22T08:40:05;5.90;73.80
64817;DHT22;69411;45.656;11.740;2023-12-22T08:42:31;6.00;74.00
64817;DHT22;69411;45.656;11.740;2023-12-22T08:44:57;6.20;73.50
64817;DHT22;69411;45.656;11.740;2023-12-22T08:47:23;6.40;73.80
64817;DHT22;69411;45.656;11.740;2023-12-22T08:49:49;6.50;73.70
64817;DHT22;69411;45.656;11.740;2023-12-22T08:52:15;6.60;73.60
64817;DHT22;69411;45.656;11.740;2023-12-22T08:54:41;6.80;73.10
64817;DHT22;69411;45.656;11.740;2023-12-22T08:57:07;7.00;71.40
64817;DHT22;69411;45.656;11.740;2023-12-22T08:59:34;7.10;71.40
64817;DHT22;69411;45.656;11.740;2023-12-22T09:02:00;7.10;71.50
64817;DHT22;69411;45.656;11.740;2023-12-22T09:04:26;7.30;71.60
64817;DHT22;69411;45.656;11.740;2023-12-22T09:06:52;7.40;72.00
64817;DHT22;69411;45.656;11.740;2023-12-22T09:09:19;7.50;71.80
64817;DHT22;69411;45.656;11.740;2023-12-22T09:11:47;7.60;70.70
64817;DHT22;69411;45.656;11.740;2023-12-22T09:14:12;7.80;71.40
64817;DHT22;69411;45.656;11.740;2023-12-22T09:16:38;7.90;71.10
64817;DHT22;69411;45.656;11.740;2023-12-22T09:19:05;8.00;70.70
64817;DHT22;69411;45.656;11.740;2023-12-22T09:21:31;8.20;69.10
64817;DHT22;69411;45.656;11.740;2023-12-22T09:23:57;8.30;69.60
64817;DHT22;69411;45.656;11.740;2023-12-22T09:26:23;8.40;68.80
64817;DHT22;69411;45.656;11.740;2023-12-22T09:28:49;8.50;69.30
64817;DHT22;69411;45.656;11.740;2023-12-22T09:31:15;8.60;69.40
64817;DHT22;69411;45.656;11.740;2023-12-22T09:33:42;8.70;69.10
64817;DHT22;69411;45.656;11.740;2023-12-22T09:36:09;8.80;69.30
64817;DHT22;69411;45.656;11.740;2023-12-22T09:38:35;8.90;68.70
64817;DHT22;69411;45.656;11.740;2023-12-22T09:41:02;9.00;68.80
64817;DHT22;69411;45.656;11.740;2023-12-22T09:43:28;9.10;68.30
64817;DHT22;69411;45.656;11.740;2023-12-22T09:45:54;9.30;67.90
64817;DHT22;69411;45.656;11.740;2023-12-22T09:48:21;9.40;67.70
64817;DHT22;69411;45.656;11.740;2023-12-22T09:50:54;9.50;67.30
64817;DHT22;69411;45.656;11.740;2023-12-22T09:53:21;9.50;63.80
64817;DHT22;69411;45.656;11.740;2023-12-22T09:55:49;9.60;65.00
64817;DHT22;69411;45.656;11.740;2023-12-22T09:58:15;9.70;65.10
64817;DHT22;69411;45.656;11.740;2023-12-22T10:00:45;9.70;62.80
64817;DHT22;69411;45.656;11.740;2023-12-22T10:03:12;9.80;63.80
64817;DHT22;69411;45.656;11.740;2023-12-22T10:05:41;9.90;64.40
64817;DHT22;69411;45.656;11.740;2023-12-22T10:08:08;9.90;64.60
64817;DHT22;69411;45.656;11.740;2023-12-22T10:10:40;10.00;64.10
64817;DHT22;69411;45.656;11.740;2023-12-22T10:13:08;10.10;63.60
64817;DHT22;69411;45.656;11.740;2023-12-22T10:15:39;10.20;63.10
64817;DHT22;69411;45.656;11.740;2023-12-22T10:18:09;10.20;63.70
64817;DHT22;69411;45.656;11.740;2023-12-22T10:20:35;10.30;63.10
64817;DHT22;69411;45.656;11.740;2023-12-22T10:23:01;10.40;63.80
64817;DHT22;69411;45.656;11.740;2023-12-22T10:25:28;10.40;64.30
64817;DHT22;69411;45.656;11.740;2023-12-22T10:27:58;10.50;62.70
64817;DHT22;69411;45.656;11.740;2023-12-22T10:30:25;10.60;62.90
64817;DHT22;69411;45.656;11.740;2023-12-22T10:32:51;10.60;63.30
64817;DHT22;69411;45.656;11.740;2023-12-22T10:35:17;10.70;63.50
64817;DHT22;69411;45.656;11.740;2023-12-22T10:37:45;10.80;63.30
64817;DHT22;69411;45.656;11.740;2023-12-22T10:40:12;10.90;64.10
64817;DHT22;69411;45.656;11.740;2023-12-22T10:42:40;10.90;63.20
64817;DHT22;69411;45.656;11.740;2023-12-22T10:45:07;11.00;64.00
64817;DHT22;69411;45.656;11.740;2023-12-22T10:47:33;11.10;63.80
64817;DHT22;69411;45.656;11.740;2023-12-22T10:50:06;11.20;63.50
64817;DHT22;69411;45.656;11.740;2023-12-22T10:52:32;11.30;63.20
64817;DHT22;69411;45.656;11.740;2023-12-22T10:54:58;11.30;61.30
64817;DHT22;69411;45.656;11.740;2023-12-22T10:57:24;11.40;62.20
64817;DHT22;69411;45.656;11.740;2023-12-22T10:59:53;11.40;62.50
64817;DHT22;69411;45.656;11.740;2023-12-22T11:02:22;11.50;62.00
64817;DHT22;69411;45.656;11.740;2023-12-22T11:07:23;11.60;60.40
64817;DHT22;69411;45.656;11.740;2023-12-22T11:09:52;11.60;61.00
64817;DHT22;69411;45.656;11.740;2023-12-22T11:12:19;11.60;61.80
64817;DHT22;69411;45.656;11.740;2023-12-22T11:14:47;11.70;61.90
64817;DHT22;69411;45.656;11.740;2023-12-22T11:17:22;11.80;61.50
64817;DHT22;69411;45.656;11.740;2023-12-22T11:19:50;11.80;61.10
64817;DHT22;69411;45.656;11.740;2023-12-22T11:22:19;11.90;61.00
64817;DHT22;69411;45.656;11.740;2023-12-22T11:24:49;11.90;60.40
64817;DHT22;69411;45.656;11.740;2023-12-22T11:27:18;12.00;61.30
64817;DHT22;69411;45.656;11.740;2023-12-22T11:29:48;12.00;58.80
64817;DHT22;69411;45.656;11.740;2023-12-22T11:32:18;12.00;58.90
64817;DHT22;69411;45.656;11.740;2023-12-22T11:34:45;12.00;59.90
64817;DHT22;69411;45.656;11.740;2023-12-22T11:37:12;12.00;59.30
64817;DHT22;69411;45.656;11.740;2023-12-22T11:39:45;12.00;60.30
64817;DHT22;69411;45.656;11.740;2023-12-22T11:42:18;12.10;60.70
64817;DHT22;69411;45.656;11.740;2023-12-22T11:44:45;12.20;59.30
64817;DHT22;69411;45.656;11.740;2023-12-22T11:47:11;12.20;58.40
64817;DHT22;69411;45.656;11.740;2023-12-22T11:49:39;12.20;59.10
64817;DHT22;69411;45.656;11.740;2023-12-22T11:52:16;12.20;59.50
64817;DHT22;69411;45.656;11.740;2023-12-22T11:54:50;12.20;60.20
64817;DHT22;69411;45.656;11.740;2023-12-22T12:02:54;12.40;59.70
64817;DHT22;69411;45.656;11.740;2023-12-22T12:05:20;12.40;60.10
64817;DHT22;69411;45.656;11.740;2023-12-22T12:07:48;12.50;60.60
64817;DHT22;69411;45.656;11.740;2023-12-22T12:13:13;12.60;59.10
64817;DHT22;69411;45.656;11.740;2023-12-22T12:15:41;12.60;59.00
64817;DHT22;69411;45.656;11.740;2023-12-22T12:18:09;12.60;58.60
64817;DHT22;69411;45.656;11.740;2023-12-22T12:20:35;12.60;59.50
64817;DHT22;69411;45.656;11.740;2023-12-22T12:23:01;12.60;59.40
64817;DHT22;69411;45.656;11.740;2023-12-22T12:25:32;12.60;59.90
64817;DHT22;69411;45.656;11.740;2023-12-22T12:28:05;12.70;60.20
64817;DHT22;69411;45.656;11.740;2023-12-22T12:30:36;12.70;58.90
64817;DHT22;69411;45.656;11.740;2023-12-22T12:33:10;12.70;59.50
64817;DHT22;69411;45.656;11.740;2023-12-22T12:35:37;12.80;59.00
64817;DHT22;69411;45.656;11.740;2023-12-22T12:38:03;12.80;58.90
64817;DHT22;69411;45.656;11.740;2023-12-22T12:40:30;12.80;57.90
64817;DHT22;69411;45.656;11.740;2023-12-22T12:42:58;12.90;58.90
64817;DHT22;69411;45.656;11.740;2023-12-22T12:45:25;12.90;59.00
64817;DHT22;69411;45.656;11.740;2023-12-22T12:47:58;12.90;58.70
64817;DHT22;69411;45.656;11.740;2023-12-22T12:50:25;12.90;59.20
64817;DHT22;69411;45.656;11.740;2023-12-22T12:52:54;12.90;59.40
64817;DHT22;69411;45.656;11.740;2023-12-22T12:55:22;12.90;59.20
64817;DHT22;69411;45.656;11.740;2023-12-22T12:57:49;12.90;59.30
64817;DHT22;69411;45.656;11.740;2023-12-22T13:00:36;12.90;58.40
64817;DHT22;69411;45.656;11.740;2023-12-22T13:03:04;12.90;58.20
64817;DHT22;69411;45.656;11.740;2023-12-22T13:05:31;12.90;58.60
64817;DHT22;69411;45.656;11.740;2023-12-22T13:13:10;12.90;59.40
64817;DHT22;69411;45.656;11.740;2023-12-22T13:15:40;12.80;59.80
64817;DHT22;69411;45.656;11.740;2023-12-22T13:18:07;12.90;59.80
64817;DHT22;69411;45.656;11.740;2023-12-22T13:20:33;12.80;59.20
64817;DHT22;69411;45.656;11.740;2023-12-22T13:23:00;12.90;59.50
64817;DHT22;69411;45.656;11.740;2023-12-22T13:25:26;12.90;58.90
64817;DHT22;69411;45.656;11.740;2023-12-22T13:27:52;12.80;57.70
64817;DHT22;69411;45.656;11.740;2023-12-22T13:30:34;12.90;58.70
64817;DHT22;69411;45.656;11.740;2023-12-22T13:33:02;12.80;58.90
64817;DHT22;69411;45.656;11.740;2023-12-22T13:35:28;12.80;58.50
64817;DHT22;69411;45.656;11.740;2023-12-22T13:37:55;12.80;59.10
64817;DHT22;69411;45.656;11.740;2023-12-22T13:40:22;12.80;58.50
64817;DHT22;69411;45.656;11.740;2023-12-22T13:42:57;12.80;59.00
64817;DHT22;69411;45.656;11.740;2023-12-22T13:45:25;12.80;59.60
64817;DHT22;69411;45.656;11.740;2023-12-22T13:47:51;12.80;59.40
64817;DHT22;69411;45.656;11.740;2023-12-22T13:50:18;12.80;58.70
64817;DHT22;69411;45.656;11.740;2023-12-22T13:52:44;12.80;59.30
64817;DHT22;69411;45.656;11.740;2023-12-22T13:55:14;12.70;58.80
64817;DHT22;69411;45.656;11.740;2023-12-22T13:57:42;12.60;58.70
64817;DHT22;69411;45.656;11.740;2023-12-22T14:02:50;12.50;59.90
64817;DHT22;69411;45.656;11.740;2023-12-22T14:05:17;12.40;59.40
64817;DHT22;69411;45.656;11.740;2023-12-22T14:07:43;12.40;59.70
64817;DHT22;69411;45.656;11.740;2023-12-22T14:10:10;12.40;59.40
64817;DHT22;69411;45.656;11.740;2023-12-22T14:12:39;12.40;60.10
64817;DHT22;69411;45.656;11.740;2023-12-22T14:15:06;12.30;60.50
64817;DHT22;69411;45.656;11.740;2023-12-22T14:17:33;12.30;60.50
64817;DHT22;69411;45.656;11.740;2023-12-22T14:19:59;12.30;60.20
64817;DHT22;69411;45.656;11.740;2023-12-22T14:22:25;12.30;60.40
64817;DHT22;69411;45.656;11.740;2023-12-22T14:24:52;12.30;60.70
64817;DHT22;69411;45.656;11.740;2023-12-22T14:27:19;12.30;60.80
64817;DHT22;69411;45.656;11.740;2023-12-22T14:29:45;12.30;60.80
64817;DHT22;69411;45.656;11.740;2023-12-22T14:32:11;12.30;60.80
64817;DHT22;69411;45.656;11.740;2023-12-22T14:34:41;12.20;61.00
64817;DHT22;69411;45.656;11.740;2023-12-22T14:37:07;12.20;61.10
64817;DHT22;69411;45.656;11.740;2023-12-22T14:39:33;12.20;61.30
64817;DHT22;69411;45.656;11.740;2023-12-22T14:41:59;12.10;61.30
64817;DHT22;69411;45.656;11.740;2023-12-22T14:44:25;12.00;61.50
64817;DHT22;69411;45.656;11.740;2023-12-22T14:46:51;12.00;61.60
64817;DHT22;69411;45.656;11.740;2023-12-22T14:49:18;11.90;61.70
64817;DHT22;69411;45.656;11.740;2023-12-22T14:51:45;11.90;61.80
64817;DHT22;69411;45.656;11.740;2023-12-22T14:54:17;11.80;62.00
64817;DHT22;69411;45.656;11.740;2023-12-22T14:56:43;11.80;62.20
64817;DHT22;69411;45.656;11.740;2023-12-22T14:59:12;11.80;62.30
64817;DHT22;69411;45.656;11.740;2023-12-22T15:01:40;11.70;62.40
64817;DHT22;69411;45.656;11.740;2023-12-22T15:04:07;11.70;62.30
64817;DHT22;69411;45.656;11.740;2023-12-22T15:06:41;11.70;62.20
64817;DHT22;69411;45.656;11.740;2023-12-22T15:09:10;11.60;62.30
64817;DHT22;69411;45.656;11.740;2023-12-22T15:11:43;11.50;62.50
64817;DHT22;69411;45.656;11.740;2023-12-22T15:14:10;11.40;62.50
64817;DHT22;69411;45.656;11.740;2023-12-22T15:16:40;11.40;62.70
64817;DHT22;69411;45.656;11.740;2023-12-22T15:19:06;11.30;62.80
64817;DHT22;69411;45.656;11.740;2023-12-22T15:21:33;11.20;62.90
64817;DHT22;69411;45.656;11.740;2023-12-22T15:24:00;11.20;63.10
64817;DHT22;69411;45.656;11.740;2023-12-22T15:26:26;11.10;63.20
64817;DHT22;69411;45.656;11.740;2023-12-22T15:28:52;11.00;63.30
64817;DHT22;69411;45.656;11.740;2023-12-22T15:31:18;10.90;63.00
64817;DHT22;69411;45.656;11.740;2023-12-22T15:33:44;10.90;63.30
64817;DHT22;69411;45.656;11.740;2023-12-22T15:36:15;10.70;63.60
64817;DHT22;69411;45.656;11.740;2023-12-22T15:38:41;10.70;63.70
64817;DHT22;69411;45.656;11.740;2023-12-22T15:41:08;10.60;63.90
64817;DHT22;69411;45.656;11.740;2023-12-22T15:43:33;10.50;64.00
64817;DHT22;69411;45.656;11.740;2023-12-22T15:46:06;10.40;64.10